createdAt,value
2018-01-27T00:00:06.052Z,89.10
2018-01-27T00:05:09.182Z,89.10
2018-01-27T00:10:11.856Z,89.00
2018-01-27T00:15:14.444Z,89.00
2018-01-27T00:20:17.057Z,89.30
2018-01-27T00:25:19.691Z,89.10
2018-01-27T00:30:23.898Z,89.10
2018-01-27T00:35:27.167Z,89.10
2018-01-27T00:40:30.455Z,88.80
2018-01-27T00:45:33.972Z,89.00
2018-01-27T00:50:36.600Z,88.90
2018-01-27T00:55:44.365Z,89.10
2018-01-27T01:00:48.630Z,88.80
2018-01-27T01:05:52.063Z,88.80
2018-01-27T01:10:56.558Z,88.90
2018-01-27T01:15:59.935Z,89.20
2018-01-27T01:21:02.519Z,89.20
2018-01-27T01:26:06.678Z,89.10
2018-01-27T01:31:11.493Z,89.20
2018-01-27T01:36:15.806Z,89.00
2018-01-27T01:41:19.784Z,89.20
2018-01-27T01:46:24.424Z,89.00
2018-01-27T01:51:27.130Z,89.20
2018-01-27T01:56:29.708Z,89.20
2018-01-27T02:01:33.588Z,89.40
2018-01-27T02:06:36.246Z,89.20
2018-01-27T02:11:38.829Z,89.60
2018-01-27T02:16:41.432Z,89.60
2018-01-27T02:21:45.073Z,89.60
2018-01-27T02:26:49.459Z,89.50
2018-01-27T02:31:53.678Z,89.70
2018-01-27T02:36:56.830Z,89.60
2018-01-27T02:42:01.282Z,89.50
2018-01-27T02:47:05.101Z,89.70
2018-01-27T02:52:08.882Z,89.80
2018-01-27T02:57:13.729Z,89.50
2018-01-27T03:02:17.257Z,89.80
2018-01-27T03:07:21.350Z,89.70
2018-01-27T03:12:26.652Z,90.00
2018-01-27T03:17:30.386Z,89.90
2018-01-27T03:22:34.722Z,89.90
2018-01-27T03:27:38.873Z,89.80
2018-01-27T03:32:42.160Z,90.00
2018-01-27T03:37:45.326Z,90.00
2018-01-27T03:42:53.093Z,89.80
2018-01-27T03:47:56.766Z,90.00
2018-01-27T03:53:01.842Z,90.00
2018-01-27T03:58:06.954Z,90.10
2018-01-27T04:03:11.527Z,90.00
2018-01-27T04:08:17.769Z,90.00
2018-01-27T04:13:24.256Z,90.10
2018-01-27T04:18:29.523Z,90.00
2018-01-27T04:23:32.706Z,90.20
2018-01-27T04:28:37.918Z,90.20
2018-01-27T04:33:41.848Z,90.10
2018-01-27T04:38:45.224Z,90.10
2018-01-27T04:43:49.994Z,90.20
2018-01-27T04:48:53.877Z,90.30
2018-01-27T04:53:58.100Z,90.30
2018-01-27T04:59:02.890Z,90.30
2018-01-27T05:04:06.063Z,90.30
2018-01-27T05:09:09.914Z,90.20
2018-01-27T05:14:13.559Z,90.20
2018-01-27T05:19:17.728Z,90.30
2018-01-27T05:24:20.396Z,90.30
2018-01-27T05:29:23.677Z,90.30
2018-01-27T05:34:27.879Z,90.40
2018-01-27T05:39:34.209Z,90.30
2018-01-27T05:44:37.910Z,90.40
2018-01-27T05:49:57.352Z,90.40
2018-01-27T05:55:00.830Z,90.40
2018-01-27T06:00:03.574Z,90.50
2018-01-27T06:05:12.155Z,90.40
2018-01-27T06:10:15.860Z,90.40
2018-01-27T06:15:20.333Z,90.50
2018-01-27T06:20:25.021Z,90.60
2018-01-27T06:25:28.116Z,90.50
2018-01-27T06:30:31.185Z,90.40
2018-01-27T06:35:36.432Z,90.50
2018-01-27T06:40:39.532Z,90.50
2018-01-27T06:45:44.704Z,90.40
2018-01-27T06:50:48.631Z,90.40
2018-01-27T06:55:52.022Z,90.50
2018-01-27T07:00:56.123Z,90.50
2018-01-27T07:05:59.391Z,90.50
2018-01-27T07:11:05.243Z,90.50
2018-01-27T07:16:09.877Z,90.60
2018-01-27T07:21:13.645Z,90.50
2018-01-27T07:26:16.568Z,90.80
2018-01-27T07:31:20.518Z,90.50
2018-01-27T07:36:23.462Z,90.50
2018-01-27T07:41:26.371Z,90.50
2018-01-27T07:46:31.076Z,90.60
2018-01-27T07:51:38.603Z,90.50
2018-01-27T07:56:43.766Z,90.60
2018-01-27T08:01:47.427Z,90.50
2018-01-27T08:06:52.531Z,90.60
2018-01-27T08:11:56.094Z,90.50
2018-01-27T08:17:01.003Z,90.50
2018-01-27T08:22:03.840Z,90.50
2018-01-27T08:27:06.665Z,90.50
2018-01-27T08:32:11.095Z,90.50
2018-01-27T08:37:21.489Z,90.50
2018-01-27T08:42:27.103Z,90.60
2018-01-27T08:47:31.961Z,90.60
2018-01-27T08:52:36.459Z,90.70
2018-01-27T08:57:40.072Z,90.60
2018-01-27T09:02:43.012Z,90.70
2018-01-27T09:07:49.440Z,90.60
2018-01-27T09:12:53.955Z,90.60
2018-01-27T09:17:57.283Z,90.60
2018-01-27T09:23:08.260Z,90.70
2018-01-27T09:28:11.417Z,90.80
2018-01-27T09:33:14.418Z,90.80
2018-01-27T09:38:17.236Z,90.90
2018-01-27T09:43:22.089Z,90.90
2018-01-27T09:48:24.824Z,90.80
2018-01-27T09:53:28.264Z,90.80
2018-01-27T09:58:31.056Z,90.80
2018-01-27T10:03:33.786Z,90.80
2018-01-27T10:08:36.552Z,90.90
2018-01-27T10:13:40.188Z,90.90
2018-01-27T10:18:43.567Z,90.90
2018-01-27T10:23:48.166Z,90.90
2018-01-27T10:28:51.162Z,90.90
2018-01-27T10:33:54.720Z,90.90
2018-01-27T10:38:57.354Z,90.90
2018-01-27T10:44:01.573Z,90.90
2018-01-27T10:49:06.758Z,90.90
2018-01-27T10:54:09.575Z,91.00
2018-01-27T10:59:12.454Z,91.10
2018-01-27T11:04:15.230Z,91.00
2018-01-27T11:09:18.659Z,91.00
2018-01-27T11:14:21.907Z,90.60
2018-01-27T11:19:24.746Z,90.60
2018-01-27T11:24:30.015Z,90.40
2018-01-27T11:29:34.424Z,90.60
2018-01-27T11:34:38.046Z,90.60
2018-01-27T11:39:41.564Z,90.70
2018-01-27T11:44:44.590Z,90.50
2018-01-27T11:49:48.150Z,90.50
2018-01-27T11:54:51.271Z,90.50
2018-01-27T11:59:54.772Z,90.30
2018-01-27T12:04:58.140Z,90.30
2018-01-27T12:10:00.815Z,90.20
2018-01-27T12:15:03.676Z,90.00
2018-01-27T12:20:10.163Z,90.20
2018-01-27T12:25:13.936Z,90.20
2018-01-27T12:30:17.124Z,90.40
2018-01-27T12:35:24.013Z,90.20
2018-01-27T12:40:27.847Z,90.20
2018-01-27T12:45:32.022Z,90.10
2018-01-27T12:50:44.252Z,90.10
2018-01-27T12:55:49.273Z,89.60
2018-01-27T13:00:54.829Z,89.70
2018-01-27T13:05:58.211Z,90.00
2018-01-27T13:11:01.134Z,90.10
2018-01-27T13:16:04.837Z,90.20
2018-01-27T13:21:07.694Z,90.10
2018-01-27T13:26:10.424Z,90.20
2018-01-27T13:31:14.176Z,90.20
2018-01-27T13:36:16.937Z,90.20
2018-01-27T13:41:19.993Z,90.20
2018-01-27T13:46:22.816Z,90.30
2018-01-27T13:51:25.697Z,90.20
2018-01-27T13:56:30.845Z,89.10
2018-01-27T14:01:35.609Z,89.60
2018-01-27T14:06:39.247Z,90.10
2018-01-27T14:11:45.335Z,90.00
2018-01-27T14:16:48.899Z,90.30
2018-01-27T14:21:51.749Z,90.00
2018-01-27T14:26:54.718Z,89.90
2018-01-27T14:31:59.018Z,89.70
2018-01-27T14:37:03.587Z,89.60
2018-01-27T14:42:06.665Z,89.70
2018-01-27T14:47:12.152Z,89.50
2018-01-27T14:52:16.635Z,89.40
2018-01-27T14:57:19.546Z,89.40
2018-01-27T15:02:23.104Z,89.10
2018-01-27T15:07:27.444Z,89.50
2018-01-27T15:12:34.977Z,89.30
2018-01-27T15:22:47.449Z,89.50
2018-01-27T15:27:50.628Z,89.40
2018-01-27T15:32:53.765Z,88.90
2018-01-27T15:37:57.268Z,89.00
2018-01-27T15:43:02.258Z,88.40
2018-01-27T15:48:04.959Z,88.30
2018-01-27T15:53:07.694Z,88.30
2018-01-27T15:58:12.037Z,88.50
2018-01-27T16:03:14.826Z,88.10
2018-01-27T16:08:17.934Z,88.20
2018-01-27T16:13:21.857Z,88.50
2018-01-27T16:18:25.219Z,88.50
2018-01-27T16:23:28.634Z,88.30
2018-01-27T16:28:31.312Z,88.40
2018-01-27T16:33:33.884Z,88.40
2018-01-27T16:38:36.450Z,88.50
2018-01-27T16:43:39.048Z,89.30
2018-01-27T16:48:42.429Z,88.50
2018-01-27T16:53:45.019Z,88.60
2018-01-27T16:58:47.612Z,88.40
2018-01-27T17:03:50.998Z,88.70
2018-01-27T17:08:53.542Z,88.70
2018-01-27T17:13:56.147Z,88.70
2018-01-27T17:18:58.711Z,88.50
2018-01-27T17:24:01.302Z,88.70
2018-01-27T17:29:04.037Z,88.70
2018-01-27T17:34:07.420Z,88.60
2018-01-27T17:39:10.217Z,88.60
2018-01-27T17:44:12.827Z,88.60
2018-01-27T17:49:16.065Z,88.70
2018-01-27T17:54:19.779Z,88.90
2018-01-27T17:59:22.776Z,88.60
2018-01-27T18:04:25.756Z,88.90
2018-01-27T18:09:28.723Z,88.90
2018-01-27T18:14:31.609Z,88.70
2018-01-27T18:19:35.049Z,89.00
2018-01-27T18:24:38.754Z,89.00
2018-01-27T18:29:43.216Z,88.80
2018-01-27T18:34:46.432Z,88.60
2018-01-27T18:39:49.134Z,88.80
2018-01-27T18:44:53.578Z,89.00
2018-01-27T18:49:57.265Z,88.80
2018-01-27T18:55:01.508Z,88.70
2018-01-27T19:00:06.417Z,88.90
2018-01-27T19:05:09.140Z,88.70
2018-01-27T19:10:12.068Z,88.90
2018-01-27T19:15:14.894Z,88.90
2018-01-27T19:20:19.909Z,88.80
2018-01-27T19:25:22.567Z,88.70
2018-01-27T19:30:25.940Z,88.90
2018-01-27T19:35:28.957Z,88.80
2018-01-27T19:40:31.924Z,88.90
2018-01-27T19:45:35.038Z,88.80
2018-01-27T19:50:39.867Z,89.00
2018-01-27T19:55:42.660Z,89.00
2018-01-27T20:00:46.770Z,89.00
2018-01-27T20:05:52.263Z,89.00
2018-01-27T20:10:55.353Z,89.10
2018-01-27T20:15:58.425Z,89.10
2018-01-27T20:21:06.374Z,89.20
2018-01-27T20:26:09.136Z,89.20
2018-01-27T20:31:12.093Z,89.30
2018-01-27T20:36:16.632Z,89.20
2018-01-27T20:41:19.514Z,89.30
2018-01-27T20:46:23.784Z,89.10
2018-01-27T20:51:27.698Z,89.30
2018-01-27T20:56:30.615Z,89.30
2018-01-27T21:01:34.903Z,89.50
2018-01-27T21:06:37.753Z,89.40
2018-01-27T21:11:41.234Z,89.30
2018-01-27T21:16:44.463Z,89.20
2018-01-27T21:21:50.841Z,89.50
2018-01-27T21:26:56.026Z,89.40
2018-01-27T21:31:59.345Z,89.30
2018-01-27T21:37:02.201Z,89.10
2018-01-27T21:42:09.015Z,89.20
2018-01-27T21:47:13.585Z,89.30
2018-01-27T21:52:16.679Z,89.30
2018-01-27T21:57:19.745Z,89.20
2018-01-27T22:02:23.695Z,89.30
2018-01-27T22:07:27.647Z,89.10
2018-01-27T22:12:32.572Z,89.40
2018-01-27T22:17:38.313Z,89.30
2018-01-27T22:22:41.462Z,89.30
2018-01-27T22:27:45.288Z,89.40
2018-01-27T23:31:52.029Z,89.00
2018-01-27T23:36:58.571Z,89.00
2018-01-27T23:42:03.024Z,89.10
2018-01-27T23:47:06.294Z,89.00
2018-01-27T23:52:11.374Z,89.00
2018-01-27T23:57:14.556Z,89.10
